sensor_id;sensor_type;location;lat;lon;timestamp;P1;durP1;ratioP1;P2;durP2;ratioP2
71253;SDS011;59019;47.638;18.966;2024-01-07T00:00:34;20.83;;;12.85;;
71253;SDS011;59019;47.638;18.966;2024-01-07T00:02:59;22.02;;;12.60;;
71253;SDS011;59019;47.638;18.966;2024-01-07T00:05:25;18.67;;;12.07;;
71253;SDS011;59019;47.638;18.966;2024-01-07T00:07:50;18.07;;;12.00;;
71253;SDS011;59019;47.638;18.966;2024-01-07T00:10:19;19.30;;;12.30;;
71253;SDS011;59019;47.638;18.966;2024-01-07T00:12:47;20.48;;;12.50;;
71253;SDS011;59019;47.638;18.966;2024-01-07T00:15:14;18.63;;;11.98;;
71253;SDS011;59019;47.638;18.966;2024-01-07T00:17:40;18.87;;;12.37;;
71253;SDS011;59019;47.638;18.966;2024-01-07T00:20:20;20.05;;;12.10;;
71253;SDS011;59019;47.638;18.966;2024-01-07T00:22:51;18.73;;;12.43;;
71253;SDS011;59019;47.638;18.966;2024-01-07T00:25:17;20.10;;;12.50;;
71253;SDS011;59019;47.638;18.966;2024-01-07T00:27:46;19.02;;;12.02;;
71253;SDS011;59019;47.638;18.966;2024-01-07T00:30:14;19.65;;;12.27;;
71253;SDS011;59019;47.638;18.966;2024-01-07T00:32:49;18.58;;;11.95;;
71253;SDS011;59019;47.638;18.966;2024-01-07T00:35:16;17.95;;;11.60;;
71253;SDS011;59019;47.638;18.966;2024-01-07T00:37:41;18.80;;;11.73;;
71253;SDS011;59019;47.638;18.966;2024-01-07T00:40:10;17.92;;;11.30;;
71253;SDS011;59019;47.638;18.966;2024-01-07T00:42:39;18.27;;;11.40;;
71253;SDS011;59019;47.638;18.966;2024-01-07T00:45:04;18.73;;;11.63;;
71253;SDS011;59019;47.638;18.966;2024-01-07T00:47:30;18.73;;;11.73;;
71253;SDS011;59019;47.638;18.966;2024-01-07T00:49:55;17.70;;;11.23;;
71253;SDS011;59019;47.638;18.966;2024-01-07T00:52:21;17.87;;;10.90;;
71253;SDS011;59019;47.638;18.966;2024-01-07T00:54:48;17.35;;;10.85;;
71253;SDS011;59019;47.638;18.966;2024-01-07T00:57:13;17.87;;;11.17;;
71253;SDS011;59019;47.638;18.966;2024-01-07T00:59:39;16.63;;;10.73;;
71253;SDS011;59019;47.638;18.966;2024-01-07T01:02:10;17.42;;;11.02;;
71253;SDS011;59019;47.638;18.966;2024-01-07T01:04:37;16.97;;;10.60;;
71253;SDS011;59019;47.638;18.966;2024-01-07T01:07:10;17.75;;;10.38;;
71253;SDS011;59019;47.638;18.966;2024-01-07T01:09:36;16.55;;;10.52;;
71253;SDS011;59019;47.638;18.966;2024-01-07T01:12:01;16.83;;;10.27;;
71253;SDS011;59019;47.638;18.966;2024-01-07T01:14:27;17.48;;;10.30;;
71253;SDS011;59019;47.638;18.966;2024-01-07T01:16:55;15.82;;;10.35;;
71253;SDS011;59019;47.638;18.966;2024-01-07T01:19:21;15.77;;;10.20;;
71253;SDS011;59019;47.638;18.966;2024-01-07T01:21:46;14.65;;;9.75;;
71253;SDS011;59019;47.638;18.966;2024-01-07T01:24:11;15.97;;;10.10;;
71253;SDS011;59019;47.638;18.966;2024-01-07T01:26:40;15.43;;;10.23;;
71253;SDS011;59019;47.638;18.966;2024-01-07T01:29:05;15.90;;;9.80;;
71253;SDS011;59019;47.638;18.966;2024-01-07T01:31:34;15.40;;;9.90;;
71253;SDS011;59019;47.638;18.966;2024-01-07T01:34:02;15.45;;;10.38;;
71253;SDS011;59019;47.638;18.966;2024-01-07T01:36:27;15.70;;;10.15;;
71253;SDS011;59019;47.638;18.966;2024-01-07T01:38:59;14.43;;;9.63;;
71253;SDS011;59019;47.638;18.966;2024-01-07T01:41:24;15.13;;;9.40;;
71253;SDS011;59019;47.638;18.966;2024-01-07T01:43:56;14.73;;;9.65;;
71253;SDS011;59019;47.638;18.966;2024-01-07T01:46:22;14.67;;;9.30;;
71253;SDS011;59019;47.638;18.966;2024-01-07T01:48:48;13.88;;;9.18;;
71253;SDS011;59019;47.638;18.966;2024-01-07T01:51:13;16.20;;;10.20;;
71253;SDS011;59019;47.638;18.966;2024-01-07T01:53:39;17.13;;;10.57;;
71253;SDS011;59019;47.638;18.966;2024-01-07T01:56:08;14.90;;;10.05;;
71253;SDS011;59019;47.638;18.966;2024-01-07T01:58:51;14.35;;;9.82;;
71253;SDS011;59019;47.638;18.966;2024-01-07T02:01:20;17.13;;;11.23;;
71253;SDS011;59019;47.638;18.966;2024-01-07T02:03:51;14.27;;;9.95;;
71253;SDS011;59019;47.638;18.966;2024-01-07T02:06:18;15.35;;;10.35;;
71253;SDS011;59019;47.638;18.966;2024-01-07T02:08:48;16.20;;;10.27;;
71253;SDS011;59019;47.638;18.966;2024-01-07T02:11:17;15.60;;;9.80;;
71253;SDS011;59019;47.638;18.966;2024-01-07T02:13:44;16.52;;;10.57;;
71253;SDS011;59019;47.638;18.966;2024-01-07T02:16:19;16.02;;;10.27;;
71253;SDS011;59019;47.638;18.966;2024-01-07T02:18:53;14.68;;;10.02;;
71253;SDS011;59019;47.638;18.966;2024-01-07T02:21:18;16.93;;;10.70;;
71253;SDS011;59019;47.638;18.966;2024-01-07T02:23:46;18.30;;;10.90;;
71253;SDS011;59019;47.638;18.966;2024-01-07T02:26:12;17.50;;;11.20;;
71253;SDS011;59019;47.638;18.966;2024-01-07T02:28:46;17.33;;;10.52;;
71253;SDS011;59019;47.638;18.966;2024-01-07T02:31:15;17.40;;;11.10;;
71253;SDS011;59019;47.638;18.966;2024-01-07T02:33:52;16.73;;;10.60;;
71253;SDS011;59019;47.638;18.966;2024-01-07T02:36:17;16.83;;;10.90;;
71253;SDS011;59019;47.638;18.966;2024-01-07T02:38:43;17.47;;;10.83;;
71253;SDS011;59019;47.638;18.966;2024-01-07T02:41:08;17.63;;;11.23;;
71253;SDS011;59019;47.638;18.966;2024-01-07T02:43:39;17.70;;;10.50;;
71253;SDS011;59019;47.638;18.966;2024-01-07T02:46:14;16.30;;;10.02;;
71253;SDS011;59019;47.638;18.966;2024-01-07T02:48:48;15.60;;;9.75;;
71253;SDS011;59019;47.638;18.966;2024-01-07T02:51:13;15.80;;;9.80;;
71253;SDS011;59019;47.638;18.966;2024-01-07T02:53:41;15.77;;;9.98;;
71253;SDS011;59019;47.638;18.966;2024-01-07T02:56:16;15.80;;;9.70;;
71253;SDS011;59019;47.638;18.966;2024-01-07T02:58:41;15.82;;;9.63;;
71253;SDS011;59019;47.638;18.966;2024-01-07T03:01:10;15.07;;;9.02;;
71253;SDS011;59019;47.638;18.966;2024-01-07T03:03:50;15.18;;;9.32;;
71253;SDS011;59019;47.638;18.966;2024-01-07T03:06:26;13.98;;;8.65;;
71253;SDS011;59019;47.638;18.966;2024-01-07T03:09:08;11.55;;;7.22;;
71253;SDS011;59019;47.638;18.966;2024-01-07T03:11:41;14.48;;;7.95;;
71253;SDS011;59019;47.638;18.966;2024-01-07T03:14:07;11.90;;;7.50;;
71253;SDS011;59019;47.638;18.966;2024-01-07T03:16:35;12.98;;;8.50;;
71253;SDS011;59019;47.638;18.966;2024-01-07T03:19:06;12.18;;;7.78;;
71253;SDS011;59019;47.638;18.966;2024-01-07T03:21:31;11.93;;;7.63;;
71253;SDS011;59019;47.638;18.966;2024-01-07T03:24:06;11.05;;;6.70;;
71253;SDS011;59019;47.638;18.966;2024-01-07T03:26:50;10.07;;;6.70;;
71253;SDS011;59019;47.638;18.966;2024-01-07T03:29:15;9.93;;;6.13;;
71253;SDS011;59019;47.638;18.966;2024-01-07T03:31:59;9.93;;;6.30;;
71253;SDS011;59019;47.638;18.966;2024-01-07T03:34:24;8.83;;;5.60;;
71253;SDS011;59019;47.638;18.966;2024-01-07T03:36:49;9.33;;;5.60;;
71253;SDS011;59019;47.638;18.966;2024-01-07T03:39:15;8.93;;;5.10;;
71253;SDS011;59019;47.638;18.966;2024-01-07T03:41:40;7.47;;;5.10;;
71253;SDS011;59019;47.638;18.966;2024-01-07T03:44:25;8.00;;;4.90;;
71253;SDS011;59019;47.638;18.966;2024-01-07T03:46:50;7.97;;;5.00;;
71253;SDS011;59019;47.638;18.966;2024-01-07T03:49:18;7.72;;;4.90;;
71253;SDS011;59019;47.638;18.966;2024-01-07T03:51:53;8.23;;;4.93;;
71253;SDS011;59019;47.638;18.966;2024-01-07T03:54:18;7.50;;;4.50;;
71253;SDS011;59019;47.638;18.966;2024-01-07T03:56:43;6.57;;;4.20;;
71253;SDS011;59019;47.638;18.966;2024-01-07T03:59:18;7.50;;;4.63;;
71253;SDS011;59019;47.638;18.966;2024-01-07T04:01:49;6.25;;;4.30;;
71253;SDS011;59019;47.638;18.966;2024-01-07T04:04:15;6.05;;;3.80;;
71253;SDS011;59019;47.638;18.966;2024-01-07T04:06:40;6.00;;;3.40;;
71253;SDS011;59019;47.638;18.966;2024-01-07T04:09:12;6.25;;;3.70;;
71253;SDS011;59019;47.638;18.966;2024-01-07T04:11:40;6.10;;;3.70;;
71253;SDS011;59019;47.638;18.966;2024-01-07T04:14:06;6.10;;;3.80;;
71253;SDS011;59019;47.638;18.966;2024-01-07T04:16:35;6.80;;;4.00;;
71253;SDS011;59019;47.638;18.966;2024-01-07T04:19:01;6.20;;;4.15;;
71253;SDS011;59019;47.638;18.966;2024-01-07T04:21:32;8.20;;;4.90;;
71253;SDS011;59019;47.638;18.966;2024-01-07T04:24:06;9.07;;;5.10;;
71253;SDS011;59019;47.638;18.966;2024-01-07T04:26:43;9.20;;;5.32;;
71253;SDS011;59019;47.638;18.966;2024-01-07T04:29:24;8.75;;;5.60;;
71253;SDS011;59019;47.638;18.966;2024-01-07T04:31:49;8.90;;;5.60;;
71253;SDS011;59019;47.638;18.966;2024-01-07T04:34:27;8.75;;;5.55;;
71253;SDS011;59019;47.638;18.966;2024-01-07T04:36:52;8.70;;;5.60;;
71253;SDS011;59019;47.638;18.966;2024-01-07T04:39:17;8.90;;;5.83;;
71253;SDS011;59019;47.638;18.966;2024-01-07T04:41:43;8.77;;;5.70;;
71253;SDS011;59019;47.638;18.966;2024-01-07T04:44:20;8.75;;;5.47;;
71253;SDS011;59019;47.638;18.966;2024-01-07T04:46:47;7.37;;;4.60;;
71253;SDS011;59019;47.638;18.966;2024-01-07T04:49:14;7.27;;;3.33;;
71253;SDS011;59019;47.638;18.966;2024-01-07T04:51:39;6.07;;;3.57;;
71253;SDS011;59019;47.638;18.966;2024-01-07T04:54:13;4.97;;;2.90;;
71253;SDS011;59019;47.638;18.966;2024-01-07T04:56:39;4.83;;;2.80;;
71253;SDS011;59019;47.638;18.966;2024-01-07T04:59:16;4.63;;;2.80;;
71253;SDS011;59019;47.638;18.966;2024-01-07T05:01:42;4.90;;;2.90;;
71253;SDS011;59019;47.638;18.966;2024-01-07T05:04:07;4.97;;;2.80;;
71253;SDS011;59019;47.638;18.966;2024-01-07T05:06:38;5.50;;;2.80;;
71253;SDS011;59019;47.638;18.966;2024-01-07T05:09:07;4.50;;;2.40;;
71253;SDS011;59019;47.638;18.966;2024-01-07T05:11:32;5.90;;;3.70;;
71253;SDS011;59019;47.638;18.966;2024-01-07T05:14:06;4.47;;;2.50;;
71253;SDS011;59019;47.638;18.966;2024-01-07T05:16:44;4.90;;;2.83;;
71253;SDS011;59019;47.638;18.966;2024-01-07T05:19:12;4.50;;;2.75;;
71253;SDS011;59019;47.638;18.966;2024-01-07T05:21:37;5.53;;;3.30;;
71253;SDS011;59019;47.638;18.966;2024-01-07T05:24:03;7.07;;;4.47;;
71253;SDS011;59019;47.638;18.966;2024-01-07T05:26:39;8.30;;;5.22;;
71253;SDS011;59019;47.638;18.966;2024-01-07T05:29:07;8.60;;;5.20;;
71253;SDS011;59019;47.638;18.966;2024-01-07T05:31:33;8.67;;;5.63;;
71253;SDS011;59019;47.638;18.966;2024-01-07T05:34:01;7.78;;;4.93;;
71253;SDS011;59019;47.638;18.966;2024-01-07T05:36:36;8.07;;;4.72;;
71253;SDS011;59019;47.638;18.966;2024-01-07T05:39:04;8.02;;;4.60;;
71253;SDS011;59019;47.638;18.966;2024-01-07T05:41:36;7.18;;;4.55;;
71253;SDS011;59019;47.638;18.966;2024-01-07T05:44:06;7.13;;;4.40;;
71253;SDS011;59019;47.638;18.966;2024-01-07T05:46:39;7.22;;;4.28;;
71253;SDS011;59019;47.638;18.966;2024-01-07T05:49:08;7.80;;;5.07;;
71253;SDS011;59019;47.638;18.966;2024-01-07T05:51:33;8.57;;;5.90;;
71253;SDS011;59019;47.638;18.966;2024-01-07T05:54:02;9.05;;;5.70;;
71253;SDS011;59019;47.638;18.966;2024-01-07T05:56:37;9.43;;;6.28;;
71253;SDS011;59019;47.638;18.966;2024-01-07T05:59:10;8.20;;;6.18;;
71253;SDS011;59019;47.638;18.966;2024-01-07T06:01:38;8.05;;;5.20;;
71253;SDS011;59019;47.638;18.966;2024-01-07T06:04:06;7.15;;;4.75;;
71253;SDS011;59019;47.638;18.966;2024-01-07T06:06:31;6.90;;;4.37;;
71253;SDS011;59019;47.638;18.966;2024-01-07T06:08:58;6.72;;;4.60;;
71253;SDS011;59019;47.638;18.966;2024-01-07T06:11:33;7.20;;;4.80;;
71253;SDS011;59019;47.638;18.966;2024-01-07T06:13:58;6.53;;;3.90;;
71253;SDS011;59019;47.638;18.966;2024-01-07T06:16:33;5.83;;;3.90;;
71253;SDS011;59019;47.638;18.966;2024-01-07T06:19:04;6.60;;;4.22;;
71253;SDS011;59019;47.638;18.966;2024-01-07T06:21:31;6.00;;;3.72;;
71253;SDS011;59019;47.638;18.966;2024-01-07T06:23:56;6.43;;;3.60;;
71253;SDS011;59019;47.638;18.966;2024-01-07T06:26:37;5.30;;;3.00;;
71253;SDS011;59019;47.638;18.966;2024-01-07T06:29:12;5.88;;;3.20;;
71253;SDS011;59019;47.638;18.966;2024-01-07T06:31:43;4.80;;;3.10;;
71253;SDS011;59019;47.638;18.966;2024-01-07T06:34:10;6.00;;;3.60;;
71253;SDS011;59019;47.638;18.966;2024-01-07T06:36:44;5.28;;;3.13;;
71253;SDS011;59019;47.638;18.966;2024-01-07T06:39:16;5.43;;;3.38;;
71253;SDS011;59019;47.638;18.966;2024-01-07T06:41:44;5.95;;;3.28;;
71253;SDS011;59019;47.638;18.966;2024-01-07T06:44:13;5.65;;;3.05;;
71253;SDS011;59019;47.638;18.966;2024-01-07T06:46:47;5.07;;;3.00;;
71253;SDS011;59019;47.638;18.966;2024-01-07T06:49:12;4.90;;;3.10;;
71253;SDS011;59019;47.638;18.966;2024-01-07T06:51:46;6.10;;;3.47;;
71253;SDS011;59019;47.638;18.966;2024-01-07T06:54:12;5.10;;;3.30;;
71253;SDS011;59019;47.638;18.966;2024-01-07T06:56:40;5.47;;;3.35;;
71253;SDS011;59019;47.638;18.966;2024-01-07T06:59:05;5.10;;;3.33;;
71253;SDS011;59019;47.638;18.966;2024-01-07T07:01:44;5.07;;;3.30;;
71253;SDS011;59019;47.638;18.966;2024-01-07T07:04:28;5.70;;;3.40;;
71253;SDS011;59019;47.638;18.966;2024-01-07T07:06:56;5.53;;;3.37;;
71253;SDS011;59019;47.638;18.966;2024-01-07T07:09:34;5.47;;;3.20;;
71253;SDS011;59019;47.638;18.966;2024-01-07T07:12:00;5.13;;;3.03;;
71253;SDS011;59019;47.638;18.966;2024-01-07T07:14:37;5.88;;;3.22;;
71253;SDS011;59019;47.638;18.966;2024-01-07T07:17:14;5.43;;;2.97;;
71253;SDS011;59019;47.638;18.966;2024-01-07T07:19:43;5.20;;;3.00;;
71253;SDS011;59019;47.638;18.966;2024-01-07T07:22:26;5.25;;;3.30;;
71253;SDS011;59019;47.638;18.966;2024-01-07T07:24:52;11.03;;;6.30;;
71253;SDS011;59019;47.638;18.966;2024-01-07T07:27:17;8.47;;;5.33;;
71253;SDS011;59019;47.638;18.966;2024-01-07T07:29:46;8.32;;;5.10;;
71253;SDS011;59019;47.638;18.966;2024-01-07T07:32:11;6.33;;;4.40;;
71253;SDS011;59019;47.638;18.966;2024-01-07T07:34:37;7.57;;;4.60;;
71253;SDS011;59019;47.638;18.966;2024-01-07T07:37:21;7.60;;;5.00;;
71253;SDS011;59019;47.638;18.966;2024-01-07T07:39:49;7.22;;;4.95;;
71253;SDS011;59019;47.638;18.966;2024-01-07T07:42:32;6.45;;;3.70;;
71253;SDS011;59019;47.638;18.966;2024-01-07T07:45:16;6.63;;;4.57;;
71253;SDS011;59019;47.638;18.966;2024-01-07T07:47:54;6.30;;;3.95;;
71253;SDS011;59019;47.638;18.966;2024-01-07T07:50:19;5.20;;;3.30;;
71253;SDS011;59019;47.638;18.966;2024-01-07T07:53:05;5.90;;;3.70;;
71253;SDS011;59019;47.638;18.966;2024-01-07T07:55:31;5.45;;;3.75;;
71253;SDS011;59019;47.638;18.966;2024-01-07T07:57:56;6.23;;;3.87;;
71253;SDS011;59019;47.638;18.966;2024-01-07T08:00:25;5.25;;;3.05;;
71253;SDS011;59019;47.638;18.966;2024-01-07T08:02:51;4.80;;;2.60;;
71253;SDS011;59019;47.638;18.966;2024-01-07T08:05:35;4.43;;;2.53;;
71253;SDS011;59019;47.638;18.966;2024-01-07T08:08:02;4.15;;;2.40;;
71253;SDS011;59019;47.638;18.966;2024-01-07T08:10:37;4.80;;;2.80;;
71253;SDS011;59019;47.638;18.966;2024-01-07T08:13:02;44.73;;;17.73;;
71253;SDS011;59019;47.638;18.966;2024-01-07T08:15:46;27.88;;;11.95;;
71253;SDS011;59019;47.638;18.966;2024-01-07T08:18:15;23.45;;;10.50;;
71253;SDS011;59019;47.638;18.966;2024-01-07T08:20:41;33.40;;;15.03;;
71253;SDS011;59019;47.638;18.966;2024-01-07T08:23:09;34.75;;;15.65;;
71253;SDS011;59019;47.638;18.966;2024-01-07T08:25:44;26.27;;;13.73;;
71253;SDS011;59019;47.638;18.966;2024-01-07T08:28:19;17.42;;;9.48;;
71253;SDS011;59019;47.638;18.966;2024-01-07T08:30:54;11.52;;;6.70;;
71253;SDS011;59019;47.638;18.966;2024-01-07T08:33:26;14.35;;;9.32;;
71253;SDS011;59019;47.638;18.966;2024-01-07T08:35:53;16.93;;;11.73;;
71253;SDS011;59019;47.638;18.966;2024-01-07T08:38:48;12.45;;;8.15;;
71253;SDS011;59019;47.638;18.966;2024-01-07T08:41:16;16.93;;;13.10;;
71253;SDS011;59019;47.638;18.966;2024-01-07T08:43:42;14.85;;;12.18;;
71253;SDS011;59019;47.638;18.966;2024-01-07T08:46:21;15.70;;;13.13;;
71253;SDS011;59019;47.638;18.966;2024-01-07T08:48:46;8.10;;;5.88;;
71253;SDS011;59019;47.638;18.966;2024-01-07T08:51:12;7.85;;;5.10;;
71253;SDS011;59019;47.638;18.966;2024-01-07T08:53:43;7.70;;;5.20;;
71253;SDS011;59019;47.638;18.966;2024-01-07T08:56:18;7.70;;;5.25;;
71253;SDS011;59019;47.638;18.966;2024-01-07T08:58:43;8.67;;;5.67;;
71253;SDS011;59019;47.638;18.966;2024-01-07T09:01:09;11.30;;;6.90;;
71253;SDS011;59019;47.638;18.966;2024-01-07T09:03:46;13.13;;;8.52;;
71253;SDS011;59019;47.638;18.966;2024-01-07T09:06:27;12.55;;;7.85;;
71253;SDS011;59019;47.638;18.966;2024-01-07T09:08:52;14.10;;;8.32;;
71253;SDS011;59019;47.638;18.966;2024-01-07T09:11:20;11.20;;;7.57;;
71253;SDS011;59019;47.638;18.966;2024-01-07T09:13:47;13.47;;;9.50;;
71253;SDS011;59019;47.638;18.966;2024-01-07T09:16:24;14.60;;;9.82;;
71253;SDS011;59019;47.638;18.966;2024-01-07T09:18:55;16.25;;;11.23;;
71253;SDS011;59019;47.638;18.966;2024-01-07T09:21:21;11.90;;;8.30;;
71253;SDS011;59019;47.638;18.966;2024-01-07T09:24:04;11.60;;;7.72;;
71253;SDS011;59019;47.638;18.966;2024-01-07T09:26:39;16.73;;;10.50;;
71253;SDS011;59019;47.638;18.966;2024-01-07T09:29:07;16.38;;;10.20;;
71253;SDS011;59019;47.638;18.966;2024-01-07T09:31:35;19.50;;;10.88;;
71253;SDS011;59019;47.638;18.966;2024-01-07T09:34:01;42.35;;;20.42;;
71253;SDS011;59019;47.638;18.966;2024-01-07T09:36:45;34.00;;;16.92;;
71253;SDS011;59019;47.638;18.966;2024-01-07T09:39:31;24.60;;;13.70;;
71253;SDS011;59019;47.638;18.966;2024-01-07T09:41:57;20.90;;;12.02;;
71253;SDS011;59019;47.638;18.966;2024-01-07T09:44:28;22.52;;;11.70;;
71253;SDS011;59019;47.638;18.966;2024-01-07T09:46:56;22.48;;;11.45;;
71253;SDS011;59019;47.638;18.966;2024-01-07T09:49:26;19.67;;;11.07;;
71253;SDS011;59019;47.638;18.966;2024-01-07T09:51:53;16.30;;;9.73;;
71253;SDS011;59019;47.638;18.966;2024-01-07T09:54:26;16.33;;;12.05;;
71253;SDS011;59019;47.638;18.966;2024-01-07T09:56:55;15.63;;;11.65;;
71253;SDS011;59019;47.638;18.966;2024-01-07T09:59:24;9.25;;;5.97;;
71253;SDS011;59019;47.638;18.966;2024-01-07T10:01:49;9.30;;;4.90;;
71253;SDS011;59019;47.638;18.966;2024-01-07T10:04:15;13.65;;;8.00;;
71253;SDS011;59019;47.638;18.966;2024-01-07T10:06:41;13.00;;;7.67;;
71253;SDS011;59019;47.638;18.966;2024-01-07T10:09:06;12.40;;;7.67;;
71253;SDS011;59019;47.638;18.966;2024-01-07T10:11:32;12.50;;;7.83;;
71253;SDS011;59019;47.638;18.966;2024-01-07T10:14:00;14.55;;;8.73;;
71253;SDS011;59019;47.638;18.966;2024-01-07T10:16:25;16.57;;;9.90;;
71253;SDS011;59019;47.638;18.966;2024-01-07T10:18:51;20.27;;;12.40;;
71253;SDS011;59019;47.638;18.966;2024-01-07T10:21:16;22.47;;;14.07;;
71253;SDS011;59019;47.638;18.966;2024-01-07T10:23:45;14.27;;;8.57;;
71253;SDS011;59019;47.638;18.966;2024-01-07T10:26:10;10.90;;;6.40;;
71253;SDS011;59019;47.638;18.966;2024-01-07T10:28:36;9.80;;;5.27;;
71253;SDS011;59019;47.638;18.966;2024-01-07T10:31:03;7.10;;;4.45;;
71253;SDS011;59019;47.638;18.966;2024-01-07T10:33:31;6.30;;;3.60;;
71253;SDS011;59019;47.638;18.966;2024-01-07T10:36:01;9.93;;;4.28;;
71253;SDS011;59019;47.638;18.966;2024-01-07T10:38:33;7.35;;;4.07;;
71253;SDS011;59019;47.638;18.966;2024-01-07T10:41:00;11.27;;;7.78;;
71253;SDS011;59019;47.638;18.966;2024-01-07T10:43:32;11.07;;;7.70;;
71253;SDS011;59019;47.638;18.966;2024-01-07T10:46:01;7.90;;;5.30;;
71253;SDS011;59019;47.638;18.966;2024-01-07T10:48:30;4.80;;;3.10;;
71253;SDS011;59019;47.638;18.966;2024-01-07T10:50:59;4.80;;;2.60;;
71253;SDS011;59019;47.638;18.966;2024-01-07T10:53:37;5.90;;;3.50;;
71253;SDS011;59019;47.638;18.966;2024-01-07T10:56:08;5.43;;;3.05;;
71253;SDS011;59019;47.638;18.966;2024-01-07T10:58:37;6.90;;;5.13;;
71253;SDS011;59019;47.638;18.966;2024-01-07T11:01:04;14.60;;;11.77;;
71253;SDS011;59019;47.638;18.966;2024-01-07T11:03:41;11.13;;;8.07;;
71253;SDS011;59019;47.638;18.966;2024-01-07T11:06:36;8.52;;;5.15;;
71253;SDS011;59019;47.638;18.966;2024-01-07T11:09:14;7.30;;;4.30;;
71253;SDS011;59019;47.638;18.966;2024-01-07T11:11:45;8.43;;;3.85;;
71253;SDS011;59019;47.638;18.966;2024-01-07T11:17:09;6.20;;;3.40;;
71253;SDS011;59019;47.638;18.966;2024-01-07T11:19:35;8.30;;;4.53;;
71253;SDS011;59019;47.638;18.966;2024-01-07T11:22:34;4.97;;;2.87;;
71253;SDS011;59019;47.638;18.966;2024-01-07T11:24:56;5.33;;;2.67;;
71253;SDS011;59019;47.638;18.966;2024-01-07T11:27:23;4.93;;;2.90;;
71253;SDS011;59019;47.638;18.966;2024-01-07T11:29:53;5.00;;;2.67;;
71253;SDS011;59019;47.638;18.966;2024-01-07T11:32:23;6.03;;;4.03;;
71253;SDS011;59019;47.638;18.966;2024-01-07T11:34:50;5.28;;;3.20;;
71253;SDS011;59019;47.638;18.966;2024-01-07T11:37:18;5.10;;;2.57;;
71253;SDS011;59019;47.638;18.966;2024-01-07T11:39:44;4.70;;;2.60;;
71253;SDS011;59019;47.638;18.966;2024-01-07T11:42:11;5.00;;;2.33;;
71253;SDS011;59019;47.638;18.966;2024-01-07T11:44:49;5.18;;;2.40;;
71253;SDS011;59019;47.638;18.966;2024-01-07T11:47:17;4.47;;;2.40;;
71253;SDS011;59019;47.638;18.966;2024-01-07T11:49:44;5.78;;;3.53;;
71253;SDS011;59019;47.638;18.966;2024-01-07T11:52:10;7.77;;;4.77;;
71253;SDS011;59019;47.638;18.966;2024-01-07T11:54:36;6.50;;;3.80;;
71253;SDS011;59019;47.638;18.966;2024-01-07T11:57:05;7.00;;;4.60;;
71253;SDS011;59019;47.638;18.966;2024-01-07T11:59:30;5.50;;;3.60;;
71253;SDS011;59019;47.638;18.966;2024-01-07T12:01:56;6.87;;;3.80;;
71253;SDS011;59019;47.638;18.966;2024-01-07T12:04:22;5.43;;;3.20;;
71253;SDS011;59019;47.638;18.966;2024-01-07T12:06:50;5.87;;;3.80;;
71253;SDS011;59019;47.638;18.966;2024-01-07T12:09:16;6.15;;;3.60;;
71253;SDS011;59019;47.638;18.966;2024-01-07T12:11:41;5.83;;;3.90;;
71253;SDS011;59019;47.638;18.966;2024-01-07T12:14:10;6.30;;;3.80;;
71253;SDS011;59019;47.638;18.966;2024-01-07T12:16:37;9.20;;;4.82;;
71253;SDS011;59019;47.638;18.966;2024-01-07T12:19:03;8.32;;;5.10;;
71253;SDS011;59019;47.638;18.966;2024-01-07T12:21:28;5.80;;;3.10;;
71253;SDS011;59019;47.638;18.966;2024-01-07T12:23:55;5.57;;;3.42;;
71253;SDS011;59019;47.638;18.966;2024-01-07T12:26:27;6.68;;;3.90;;
71253;SDS011;59019;47.638;18.966;2024-01-07T12:28:53;6.30;;;3.80;;
71253;SDS011;59019;47.638;18.966;2024-01-07T12:31:20;6.75;;;3.80;;
71253;SDS011;59019;47.638;18.966;2024-01-07T12:33:46;6.43;;;3.97;;
71253;SDS011;59019;47.638;18.966;2024-01-07T12:36:12;5.97;;;3.45;;
71253;SDS011;59019;47.638;18.966;2024-01-07T12:38:37;7.03;;;4.37;;
71253;SDS011;59019;47.638;18.966;2024-01-07T12:41:03;6.73;;;3.77;;
71253;SDS011;59019;47.638;18.966;2024-01-07T12:43:29;6.20;;;3.92;;
71253;SDS011;59019;47.638;18.966;2024-01-07T12:45:55;7.27;;;4.13;;
71253;SDS011;59019;47.638;18.966;2024-01-07T12:48:21;6.13;;;3.60;;
71253;SDS011;59019;47.638;18.966;2024-01-07T12:50:47;5.53;;;3.70;;
71253;SDS011;59019;47.638;18.966;2024-01-07T12:53:13;6.35;;;4.13;;
71253;SDS011;59019;47.638;18.966;2024-01-07T12:55:38;6.00;;;3.60;;
71253;SDS011;59019;47.638;18.966;2024-01-07T12:58:05;5.97;;;3.40;;
71253;SDS011;59019;47.638;18.966;2024-01-07T13:00:30;5.77;;;3.40;;
71253;SDS011;59019;47.638;18.966;2024-01-07T13:02:56;5.53;;;3.57;;
71253;SDS011;59019;47.638;18.966;2024-01-07T13:05:21;7.47;;;4.70;;
71253;SDS011;59019;47.638;18.966;2024-01-07T13:07:46;7.27;;;4.70;;
71253;SDS011;59019;47.638;18.966;2024-01-07T13:10:12;6.80;;;4.57;;
71253;SDS011;59019;47.638;18.966;2024-01-07T13:12:38;6.60;;;4.40;;
71253;SDS011;59019;47.638;18.966;2024-01-07T13:15:04;7.50;;;4.50;;
71253;SDS011;59019;47.638;18.966;2024-01-07T13:17:30;7.53;;;4.68;;
71253;SDS011;59019;47.638;18.966;2024-01-07T13:19:57;7.60;;;5.28;;
71253;SDS011;59019;47.638;18.966;2024-01-07T13:22:26;7.82;;;4.65;;
71253;SDS011;59019;47.638;18.966;2024-01-07T13:24:51;7.67;;;5.07;;
71253;SDS011;59019;47.638;18.966;2024-01-07T13:27:22;7.82;;;5.07;;
71253;SDS011;59019;47.638;18.966;2024-01-07T13:29:51;7.75;;;5.05;;
71253;SDS011;59019;47.638;18.966;2024-01-07T13:32:16;8.48;;;5.15;;
71253;SDS011;59019;47.638;18.966;2024-01-07T13:34:43;8.20;;;5.25;;
71253;SDS011;59019;47.638;18.966;2024-01-07T13:37:10;8.73;;;5.47;;
71253;SDS011;59019;47.638;18.966;2024-01-07T13:39:36;8.73;;;5.40;;
71253;SDS011;59019;47.638;18.966;2024-01-07T13:42:02;8.20;;;5.60;;
71253;SDS011;59019;47.638;18.966;2024-01-07T13:44:28;9.18;;;5.70;;
71253;SDS011;59019;47.638;18.966;2024-01-07T13:46:53;8.17;;;5.33;;
71253;SDS011;59019;47.638;18.966;2024-01-07T13:49:19;8.97;;;5.77;;
71253;SDS011;59019;47.638;18.966;2024-01-07T13:51:45;8.98;;;5.57;;
71253;SDS011;59019;47.638;18.966;2024-01-07T13:54:11;9.38;;;5.75;;
71253;SDS011;59019;47.638;18.966;2024-01-07T13:56:39;9.68;;;5.85;;
71253;SDS011;59019;47.638;18.966;2024-01-07T13:59:14;11.10;;;6.90;;
71253;SDS011;59019;47.638;18.966;2024-01-07T14:01:45;9.70;;;6.22;;
71253;SDS011;59019;47.638;18.966;2024-01-07T14:04:10;10.00;;;6.20;;
71253;SDS011;59019;47.638;18.966;2024-01-07T14:06:36;9.73;;;6.40;;
71253;SDS011;59019;47.638;18.966;2024-01-07T14:09:01;10.37;;;6.30;;
71253;SDS011;59019;47.638;18.966;2024-01-07T14:11:28;9.95;;;6.30;;
71253;SDS011;59019;47.638;18.966;2024-01-07T14:13:53;9.73;;;6.70;;
71253;SDS011;59019;47.638;18.966;2024-01-07T14:16:19;11.00;;;7.23;;
71253;SDS011;59019;47.638;18.966;2024-01-07T14:18:44;11.13;;;7.37;;
71253;SDS011;59019;47.638;18.966;2024-01-07T14:21:09;10.83;;;7.00;;
71253;SDS011;59019;47.638;18.966;2024-01-07T14:23:35;10.70;;;6.87;;
71253;SDS011;59019;47.638;18.966;2024-01-07T14:26:01;11.23;;;7.07;;
71253;SDS011;59019;47.638;18.966;2024-01-07T14:28:26;10.07;;;6.80;;
71253;SDS011;59019;47.638;18.966;2024-01-07T14:30:51;12.20;;;7.57;;
71253;SDS011;59019;47.638;18.966;2024-01-07T14:33:19;11.65;;;7.60;;
71253;SDS011;59019;47.638;18.966;2024-01-07T14:35:45;13.60;;;10.05;;
71253;SDS011;59019;47.638;18.966;2024-01-07T14:38:10;15.43;;;11.87;;
71253;SDS011;59019;47.638;18.966;2024-01-07T14:40:36;17.50;;;13.57;;